KACB/ACB METAR and TAF weather

Enter ICAO airport designator
Station Type Date Time Source
KACB METAR 2019/10/23 12:35 UTC NOAA

KACB 231235Z AUTO 23005G17KT 7SM -SN BKN023 OVC029 08/04 A2968 RMK AO2 T00770042


Station Type Date Time Source
KACB Decoded METAR 2019/10/23 12:35 UTC NOAA

Bellaire, Antrim County Airport, MI, United States (KACB) 44-59-18N 085-11-54W
Oct 23, 2019 - 08:35 AM EDT / 2019.10.23 1235 UTC
Wind: from the SW (230 degrees) at 6 MPH (5 KT) gusting to 20 MPH (17 KT):0
Visibility: 7 mile(s):0
Sky conditions: overcast
Weather: light snow
Temperature: 45.9 F (7.7 C)
Dew Point: 39.6 F (4.2 C)
Relative Humidity: 78%
Pressure (altimeter): 29.68 in. Hg (1005 hPa)
ob: KACB 231235Z AUTO 23005G17KT 7SM -SN BKN023 OVC029 08/04 A2968 RMK AO2 T00770042
cycle: 12

Station Type Date Time Source
KACB TAF UTC NOAA

Error!

Example: see airport list